createdAt,value
2019-04-03T00:00:38.090Z,27.23
2019-04-03T00:03:10.236Z,27.33
2019-04-03T00:05:42.092Z,26.97
2019-04-03T00:08:14.142Z,27.23
2019-04-03T00:10:46.081Z,27.23
2019-04-03T00:13:18.158Z,26.80
2019-04-03T00:15:49.921Z,27.07
2019-04-03T00:18:22.178Z,27.33
2019-04-03T00:20:53.946Z,27.28
2019-04-03T00:23:25.778Z,27.41
2019-04-03T00:25:57.928Z,27.12
2019-04-03T00:28:29.758Z,27.41
2019-04-03T00:31:01.576Z,27.16
2019-04-03T00:33:33.706Z,27.15
2019-04-03T00:36:05.801Z,27.28
2019-04-03T00:38:38.124Z,27.11
2019-04-03T00:41:09.889Z,27.17
2019-04-03T00:43:41.739Z,27.31
2019-04-03T00:46:13.521Z,27.51
2019-04-03T00:48:45.729Z,27.49
2019-04-03T00:51:17.506Z,27.33
2019-04-03T00:53:49.581Z,27.35
2019-04-03T00:56:21.340Z,27.33
2019-04-03T00:58:55.007Z,27.43
2019-04-03T01:01:27.047Z,27.68
2019-04-03T01:03:59.489Z,27.59
2019-04-03T01:06:31.353Z,27.76
2019-04-03T01:09:03.184Z,27.35
2019-04-03T01:11:35.938Z,27.63
2019-04-03T01:14:07.791Z,27.44
2019-04-03T01:16:39.639Z,27.83
2019-04-03T01:19:11.798Z,27.67
2019-04-03T01:21:43.676Z,27.64
2019-04-03T01:24:15.611Z,27.75
2019-04-03T01:26:47.468Z,28.16
2019-04-03T01:29:19.422Z,27.98
2019-04-03T01:31:51.384Z,27.93
2019-04-03T01:34:23.380Z,28.16
2019-04-03T01:36:55.123Z,28.23
2019-04-03T01:39:27.175Z,28.18
2019-04-03T01:41:58.973Z,28.32
2019-04-03T01:44:31.115Z,28.24
2019-04-03T01:47:02.845Z,28.32
2019-04-03T01:49:35.007Z,28.58
2019-04-03T01:52:06.789Z,29.11
2019-04-03T01:54:38.860Z,28.95
2019-04-03T01:57:10.649Z,28.92
2019-04-03T01:59:42.685Z,28.99
2019-04-03T02:02:15.686Z,28.85
2019-04-03T02:04:48.043Z,28.87
2019-04-03T02:07:19.860Z,28.93
2019-04-03T02:09:51.983Z,29.32
2019-04-03T02:12:23.773Z,29.10
2019-04-03T02:14:55.892Z,29.33
2019-04-03T02:17:27.660Z,29.54
2019-04-03T02:19:59.862Z,29.45
2019-04-03T02:22:31.603Z,29.69
2019-04-03T02:25:03.543Z,29.64
2019-04-03T02:27:35.351Z,29.62
2019-04-03T02:30:12.297Z,29.70
2019-04-03T02:32:43.042Z,29.84
2019-04-03T02:35:15.393Z,29.93
2019-04-03T02:37:49.768Z,30.01
2019-04-03T02:40:21.032Z,30.13
2019-04-03T02:42:52.889Z,30.29
2019-04-03T02:45:25.085Z,30.21
2019-04-03T02:47:56.806Z,30.13
2019-04-03T02:50:30.000Z,30.55
2019-04-03T02:53:04.949Z,30.46
2019-04-03T02:55:39.813Z,30.55
2019-04-03T02:58:10.677Z,30.43
2019-04-03T03:00:42.720Z,30.86
2019-04-03T03:03:17.217Z,30.77
2019-04-03T03:05:48.281Z,30.74
2019-04-03T03:08:23.043Z,30.77
2019-04-03T03:10:55.431Z,30.94
2019-04-03T03:13:27.366Z,31.26
2019-04-03T03:15:59.717Z,31.10
2019-04-03T03:18:31.777Z,30.87
2019-04-03T03:21:06.346Z,31.02
2019-04-03T03:23:39.959Z,31.07
2019-04-03T03:26:12.075Z,30.90
2019-04-03T03:28:46.850Z,30.83
2019-04-03T03:31:19.426Z,31.24
2019-04-03T03:33:52.429Z,31.13
2019-04-03T03:36:26.494Z,31.25
2019-04-03T03:39:00.927Z,31.12
2019-04-03T03:41:36.085Z,31.22
2019-04-03T03:44:10.642Z,31.26
2019-04-03T03:46:43.473Z,31.49
2019-04-03T03:49:17.973Z,31.66
2019-04-03T03:51:51.292Z,31.35
2019-04-03T03:54:25.107Z,31.73
2019-04-03T03:56:57.501Z,31.67
2019-04-03T03:59:30.482Z,31.54
2019-04-03T04:02:05.289Z,31.91
2019-04-03T04:04:36.360Z,31.74
2019-04-03T04:07:08.599Z,31.52
2019-04-03T04:09:40.589Z,31.55
2019-04-03T04:12:12.443Z,31.74
2019-04-03T04:14:44.265Z,31.76
2019-04-03T04:17:18.460Z,31.92
2019-04-03T04:19:50.599Z,32.18
2019-04-03T04:22:26.786Z,32.21
2019-04-03T04:24:59.914Z,32.30
2019-04-03T04:27:33.834Z,32.35
2019-04-03T04:30:06.923Z,32.33
2019-04-03T04:32:38.963Z,32.32
2019-04-03T04:35:11.254Z,32.42
2019-04-03T04:37:43.624Z,32.31
2019-04-03T04:40:15.653Z,32.39
2019-04-03T04:42:48.586Z,32.64
2019-04-03T04:45:20.317Z,32.35
2019-04-03T04:47:52.317Z,32.28
2019-04-03T04:50:25.370Z,32.29
2019-04-03T04:52:58.704Z,32.17
2019-04-03T04:55:33.044Z,32.46
2019-04-03T04:58:05.345Z,32.28
2019-04-03T05:00:37.209Z,32.42
2019-04-03T05:03:09.143Z,32.59
2019-04-03T05:05:40.897Z,32.29
2019-04-03T05:08:13.344Z,32.20
2019-04-03T05:10:45.164Z,32.39
2019-04-03T05:13:17.048Z,32.14
2019-04-03T05:15:48.952Z,31.93
2019-04-03T05:18:21.071Z,31.68
2019-04-03T05:20:53.077Z,31.92
2019-04-03T05:23:25.603Z,32.06
2019-04-03T05:26:01.006Z,32.16
2019-04-03T05:28:33.967Z,31.71
2019-04-03T05:31:07.642Z,31.47
2019-04-03T05:33:41.146Z,31.50
2019-04-03T05:36:12.622Z,31.81
2019-04-03T05:38:45.115Z,31.46
2019-04-03T05:41:17.277Z,31.29
2019-04-03T05:43:49.276Z,31.03
2019-04-03T05:46:21.046Z,30.93
2019-04-03T05:48:53.312Z,30.75
2019-04-03T05:51:25.111Z,31.07
2019-04-03T05:53:57.570Z,30.72
2019-04-03T05:56:29.566Z,30.72
2019-04-03T05:59:03.026Z,30.55
2019-04-03T06:01:35.075Z,30.34
2019-04-03T06:04:07.988Z,30.52
2019-04-03T06:06:40.743Z,30.21
2019-04-03T06:09:13.051Z,30.37
2019-04-03T06:11:44.947Z,30.26
2019-04-03T06:14:19.052Z,30.33
2019-04-03T06:16:50.922Z,30.30
2019-04-03T06:19:22.753Z,29.89
2019-04-03T06:21:54.617Z,29.82
2019-04-03T06:24:26.828Z,29.85
2019-04-03T06:26:58.674Z,29.69
2019-04-03T06:29:30.524Z,29.27
2019-04-03T06:32:05.179Z,29.59
2019-04-03T06:34:38.396Z,29.46
2019-04-03T06:37:09.582Z,29.33
2019-04-03T06:39:41.940Z,28.95
2019-04-03T06:42:14.082Z,28.52
2019-04-03T06:44:46.581Z,28.54
2019-04-03T06:47:18.368Z,28.59
2019-04-03T06:49:50.198Z,28.24
2019-04-03T06:52:22.181Z,28.23
2019-04-03T06:54:54.548Z,28.45
2019-04-03T06:57:26.488Z,28.06
2019-04-03T06:59:58.488Z,27.71
2019-04-03T07:02:32.051Z,27.80
2019-04-03T07:05:03.956Z,27.61
2019-04-03T07:07:35.791Z,27.62
2019-04-03T07:10:09.150Z,27.16
2019-04-03T07:12:41.610Z,27.54
2019-04-03T07:15:14.187Z,27.56
2019-04-03T07:17:46.296Z,26.93
2019-04-03T07:20:20.022Z,26.77
2019-04-03T07:22:51.952Z,27.08
2019-04-03T07:25:24.638Z,26.63
2019-04-03T07:27:56.474Z,27.03
2019-04-03T07:30:28.417Z,26.86
2019-04-03T07:33:00.151Z,26.90
2019-04-03T07:35:32.221Z,26.88
2019-04-03T07:38:03.979Z,26.42
2019-04-03T07:40:36.516Z,26.56
2019-04-03T07:43:08.440Z,26.44
2019-04-03T07:45:40.483Z,26.70
2019-04-03T07:48:12.240Z,26.41
2019-04-03T07:50:44.191Z,26.44
2019-04-03T07:53:16.058Z,25.86
2019-04-03T07:55:48.228Z,25.46
2019-04-03T07:58:20.234Z,25.79
2019-04-03T08:00:52.525Z,25.73
2019-04-03T08:03:24.425Z,25.65
2019-04-03T08:05:56.848Z,25.51
2019-04-03T08:08:29.175Z,25.89
2019-04-03T08:11:02.585Z,25.23
2019-04-03T08:13:37.616Z,24.94
2019-04-03T08:16:08.282Z,24.65
2019-04-03T08:18:41.660Z,25.12
2019-04-03T08:21:13.674Z,24.46
2019-04-03T08:23:45.493Z,24.83
2019-04-03T08:26:19.175Z,24.70
2019-04-03T08:28:51.446Z,24.47
2019-04-03T08:31:23.602Z,24.62
2019-04-03T08:33:57.124Z,24.39
2019-04-03T08:36:29.561Z,24.50
2019-04-03T08:39:01.688Z,24.35
2019-04-03T08:41:37.387Z,24.20
2019-04-03T08:44:09.324Z,24.00
2019-04-03T08:46:43.877Z,24.00
2019-04-03T08:49:15.348Z,23.96
2019-04-03T08:51:47.685Z,23.49
2019-04-03T08:54:19.553Z,23.50
2019-04-03T08:56:51.862Z,23.61
2019-04-03T08:59:24.033Z,23.40
2019-04-03T09:01:56.207Z,23.58
2019-04-03T09:04:28.291Z,23.41
2019-04-03T09:07:00.814Z,22.84
2019-04-03T09:09:34.897Z,23.41
2019-04-03T09:12:07.582Z,23.01
2019-04-03T09:14:39.803Z,23.19
2019-04-03T09:17:11.849Z,22.86
2019-04-03T09:19:43.772Z,22.71
2019-04-03T09:22:15.790Z,22.91
2019-04-03T09:24:47.802Z,22.93
2019-04-03T09:27:20.211Z,22.77
2019-04-03T09:29:52.840Z,22.55
2019-04-03T09:32:25.063Z,21.97
2019-04-03T09:34:56.809Z,22.05
2019-04-03T09:37:28.799Z,22.12
2019-04-03T09:40:00.662Z,22.25
2019-04-03T09:42:33.031Z,21.75
2019-04-03T09:45:06.156Z,21.51
2019-04-03T09:47:38.346Z,21.83
2019-04-03T09:50:11.934Z,21.94
2019-04-03T09:52:49.083Z,21.14
2019-04-03T09:55:18.028Z,20.96
2019-04-03T09:57:52.307Z,21.07
2019-04-03T10:00:23.970Z,21.09
2019-04-03T10:02:56.000Z,21.06
2019-04-03T10:05:28.957Z,20.68
2019-04-03T10:08:01.871Z,20.66
2019-04-03T10:10:33.686Z,20.75
2019-04-03T10:13:05.874Z,20.51
2019-04-03T10:15:37.733Z,20.77
2019-04-03T10:18:10.116Z,20.54
2019-04-03T10:20:42.121Z,20.45
2019-04-03T10:23:14.167Z,20.31
2019-04-03T10:25:45.916Z,20.03
2019-04-03T10:28:18.196Z,20.20
2019-04-03T10:30:51.973Z,19.93
2019-04-03T10:33:23.890Z,20.17
2019-04-03T10:35:55.778Z,19.86
2019-04-03T10:38:27.898Z,19.83
2019-04-03T10:40:59.881Z,19.86
2019-04-03T10:43:32.444Z,20.28
2019-04-03T10:46:04.233Z,19.97
2019-04-03T10:48:36.119Z,20.06
2019-04-03T10:51:09.408Z,19.93
2019-04-03T10:53:41.994Z,20.10
2019-04-03T10:56:13.894Z,19.50
2019-04-03T10:58:46.348Z,19.69
2019-04-03T11:01:18.154Z,19.89
2019-04-03T11:03:50.216Z,19.62
2019-04-03T11:06:23.352Z,19.64
2019-04-03T11:08:55.976Z,19.23
2019-04-03T11:11:29.644Z,19.66
2019-04-03T11:14:03.025Z,19.64
2019-04-03T11:16:36.214Z,19.70
2019-04-03T11:19:09.037Z,19.36
2019-04-03T11:21:43.259Z,19.43
2019-04-03T11:24:14.695Z,19.55
2019-04-03T11:26:46.656Z,19.42
2019-04-03T11:29:18.893Z,19.50
2019-04-03T11:31:51.397Z,19.20
2019-04-03T11:34:23.546Z,18.93
2019-04-03T11:36:55.418Z,18.52
2019-04-03T11:39:27.702Z,19.06
2019-04-03T11:41:59.859Z,19.05
2019-04-03T11:44:32.786Z,19.02
2019-04-03T11:47:04.947Z,18.62
2019-04-03T11:49:37.043Z,18.61
2019-04-03T11:52:08.938Z,18.69
2019-04-03T11:54:40.903Z,18.89
2019-04-03T11:57:15.557Z,18.79
2019-04-03T11:59:47.835Z,18.85
2019-04-03T12:02:21.002Z,18.95
2019-04-03T12:04:54.486Z,19.14
2019-04-03T12:07:26.408Z,19.23
2019-04-03T12:09:58.410Z,18.64
2019-04-03T12:12:30.590Z,18.48
2019-04-03T12:15:02.642Z,18.30
2019-04-03T12:17:34.923Z,18.48
2019-04-03T12:20:09.258Z,18.33
2019-04-03T12:22:41.275Z,18.41
2019-04-03T12:25:13.300Z,18.12
2019-04-03T12:27:46.410Z,18.39
2019-04-03T12:30:20.720Z,17.97
2019-04-03T12:32:52.558Z,17.94
2019-04-03T12:35:24.361Z,17.63
2019-04-03T12:37:56.225Z,17.09
2019-04-03T12:40:30.286Z,16.34
2019-04-03T12:43:02.150Z,15.58
2019-04-03T12:45:34.770Z,15.51
2019-04-03T12:48:06.823Z,14.87
2019-04-03T12:50:39.241Z,14.48
2019-04-03T12:53:11.776Z,13.72
2019-04-03T12:55:44.469Z,13.66
2019-04-03T12:58:16.696Z,13.48
2019-04-03T13:00:49.118Z,13.13
2019-04-03T13:03:23.607Z,12.93
2019-04-03T13:05:55.027Z,12.01
2019-04-03T13:08:27.235Z,11.83
2019-04-03T13:10:59.472Z,11.19
2019-04-03T13:13:31.465Z,10.93
2019-04-03T13:16:03.950Z,11.24
2019-04-03T13:18:36.207Z,11.75
2019-04-03T13:21:09.263Z,11.40
2019-04-03T13:23:45.154Z,11.33
2019-04-03T13:26:14.895Z,10.26
2019-04-03T13:28:46.800Z,9.30
2019-04-03T13:31:18.757Z,10.37
2019-04-03T13:33:51.094Z,10.29
2019-04-03T13:36:24.494Z,10.00
2019-04-03T13:39:00.316Z,10.18
2019-04-03T13:41:33.313Z,10.59
2019-04-03T13:44:04.388Z,10.86
2019-04-03T13:46:37.752Z,10.00
2019-04-03T13:49:09.524Z,9.31
2019-04-03T13:51:41.751Z,10.34
2019-04-03T13:54:15.244Z,9.24
2019-04-03T13:56:47.855Z,8.90
2019-04-03T13:59:19.794Z,9.29
2019-04-03T14:01:52.052Z,9.26
2019-04-03T14:04:24.081Z,9.30
2019-04-03T14:06:56.218Z,9.84
2019-04-03T14:09:28.274Z,10.34
2019-04-03T14:12:00.986Z,10.75
2019-04-03T14:14:33.851Z,10.32
2019-04-03T14:17:06.622Z,10.39
2019-04-03T14:19:44.371Z,11.39
2019-04-03T14:22:12.725Z,11.03
2019-04-03T14:24:49.512Z,11.23
2019-04-03T14:27:23.828Z,10.78
2019-04-03T14:29:51.406Z,11.51
2019-04-03T14:32:23.905Z,10.60
2019-04-03T14:35:04.882Z,9.85
2019-04-03T14:37:29.821Z,9.74
2019-04-03T14:40:01.650Z,10.13
2019-04-03T14:42:34.097Z,9.83
2019-04-03T14:45:06.880Z,9.97
2019-04-03T14:47:39.619Z,9.39
2019-04-03T14:50:12.732Z,8.95
2019-04-03T14:52:47.695Z,8.43
2019-04-03T14:55:21.293Z,9.89
2019-04-03T14:57:53.785Z,10.51
2019-04-03T15:00:29.502Z,9.48
2019-04-03T15:02:59.352Z,9.36
2019-04-03T15:05:31.933Z,9.45
2019-04-03T15:08:05.554Z,8.84
2019-04-03T15:10:37.591Z,9.02
2019-04-03T15:13:12.654Z,9.43
2019-04-03T15:15:45.781Z,9.15
2019-04-03T15:18:18.641Z,10.18
2019-04-03T15:20:51.931Z,9.81
2019-04-03T15:23:24.513Z,10.62
2019-04-03T15:25:56.745Z,10.33
2019-04-03T15:28:30.585Z,11.00
2019-04-03T15:31:02.546Z,10.71
2019-04-03T15:33:34.672Z,11.55
2019-04-03T15:36:06.768Z,11.68
2019-04-03T15:38:38.925Z,11.50
2019-04-03T15:41:11.422Z,11.49
2019-04-03T15:43:45.604Z,11.31
2019-04-03T15:46:17.037Z,11.68
2019-04-03T15:48:52.524Z,11.64
2019-04-03T15:51:23.120Z,13.05
2019-04-03T15:53:56.810Z,13.41
2019-04-03T15:56:29.049Z,13.63
2019-04-03T15:59:01.133Z,13.93
2019-04-03T16:01:33.241Z,14.13
2019-04-03T16:04:05.998Z,13.87
2019-04-03T16:06:38.024Z,14.20
2019-04-03T16:09:11.321Z,15.05
2019-04-03T16:11:43.231Z,15.79
2019-04-03T16:14:16.697Z,16.78
2019-04-03T16:16:49.177Z,17.04
2019-04-03T16:19:21.385Z,17.36
2019-04-03T16:21:55.677Z,17.82
2019-04-03T16:24:27.133Z,18.29
2019-04-03T16:26:58.908Z,18.87
2019-04-03T16:29:31.361Z,19.17
2019-04-03T16:32:03.550Z,19.43
2019-04-03T16:34:35.839Z,19.66
2019-04-03T16:37:08.176Z,19.95
2019-04-03T16:39:40.305Z,20.14
2019-04-03T16:42:12.448Z,20.31
2019-04-03T16:44:44.425Z,20.43
2019-04-03T16:47:16.805Z,20.49
2019-04-03T16:49:54.262Z,20.51
2019-04-03T16:52:23.805Z,20.70
2019-04-03T16:54:55.840Z,20.89
2019-04-03T16:57:27.909Z,20.84
2019-04-03T17:00:00.343Z,20.95
2019-04-03T17:02:32.574Z,21.04
2019-04-03T17:05:05.274Z,20.84
2019-04-03T17:07:38.347Z,20.96
2019-04-03T17:10:10.892Z,21.11
2019-04-03T17:12:45.435Z,21.04
2019-04-03T17:15:19.181Z,21.31
2019-04-03T17:17:51.419Z,21.60
2019-04-03T17:20:24.746Z,21.82
2019-04-03T17:22:57.152Z,22.07
2019-04-03T17:25:38.217Z,21.89
2019-04-03T17:28:07.506Z,22.00
2019-04-03T17:30:37.207Z,22.35
2019-04-03T17:33:09.444Z,22.00
2019-04-03T17:35:42.712Z,22.24
2019-04-03T17:38:16.298Z,22.22
2019-04-03T17:40:48.765Z,22.33
2019-04-03T17:43:21.151Z,22.41
2019-04-03T17:45:54.102Z,22.40
2019-04-03T17:48:26.515Z,22.71
2019-04-03T17:51:02.367Z,22.71
2019-04-03T17:53:36.385Z,22.85
2019-04-03T17:56:12.272Z,23.00
2019-04-03T17:58:43.758Z,22.66
2019-04-03T18:01:16.875Z,22.74
2019-04-03T18:03:49.688Z,22.68
2019-04-03T18:06:22.554Z,23.03
2019-04-03T18:08:54.495Z,22.82
2019-04-03T18:11:26.517Z,22.90
2019-04-03T18:13:58.479Z,22.95
2019-04-03T18:16:30.487Z,22.91
2019-04-03T18:19:04.548Z,22.90
2019-04-03T18:21:36.230Z,23.13
2019-04-03T18:24:08.327Z,22.95
2019-04-03T18:26:40.283Z,23.29
2019-04-03T18:29:12.218Z,22.83
2019-04-03T18:31:45.192Z,22.89
2019-04-03T18:34:19.457Z,23.21
2019-04-03T18:36:51.237Z,23.20
2019-04-03T18:39:23.148Z,23.00
2019-04-03T18:41:55.571Z,23.20
2019-04-03T18:44:30.115Z,23.43
2019-04-03T18:47:01.338Z,23.39
2019-04-03T18:49:34.580Z,23.24
2019-04-03T18:52:07.989Z,23.28
2019-04-03T18:54:42.140Z,23.30
2019-04-03T18:57:16.822Z,23.06
2019-04-03T18:59:47.993Z,23.06
2019-04-03T19:02:20.506Z,23.15
2019-04-03T19:05:01.737Z,23.29
2019-04-03T19:07:26.359Z,23.33
2019-04-03T19:10:07.033Z,23.47
2019-04-03T19:12:35.792Z,23.37
2019-04-03T19:15:08.896Z,23.38
2019-04-03T19:17:41.315Z,23.30
2019-04-03T19:20:13.600Z,23.34
2019-04-03T19:22:47.036Z,23.27
2019-04-03T19:25:19.031Z,23.48
2019-04-03T19:27:51.854Z,23.32
2019-04-03T19:30:23.994Z,23.53
2019-04-03T19:32:55.994Z,23.64
2019-04-03T19:35:28.593Z,23.53
2019-04-03T19:38:04.747Z,23.40
2019-04-03T19:40:35.069Z,23.58
2019-04-03T19:43:07.231Z,23.69
2019-04-03T19:45:39.337Z,23.93
2019-04-03T19:48:11.856Z,23.43
2019-04-03T19:50:44.600Z,23.75
2019-04-03T19:53:17.352Z,23.83
2019-04-03T19:55:49.891Z,23.91
2019-04-03T19:58:22.686Z,23.61
2019-04-03T20:00:54.873Z,23.50
2019-04-03T20:03:27.315Z,23.79
2019-04-03T20:05:59.495Z,23.80
2019-04-03T20:08:31.734Z,24.02
2019-04-03T20:11:05.150Z,24.13
2019-04-03T20:13:39.882Z,23.97
2019-04-03T20:16:12.628Z,24.04
2019-04-03T20:18:44.587Z,24.12
2019-04-03T20:21:16.441Z,24.19
2019-04-03T20:23:48.853Z,24.31
2019-04-03T20:26:20.803Z,24.40
2019-04-03T20:28:53.120Z,24.59
2019-04-03T20:31:25.038Z,24.44
2019-04-03T20:33:57.146Z,24.45
2019-04-03T20:36:29.283Z,24.55
2019-04-03T20:39:04.084Z,24.63
2019-04-03T20:41:35.928Z,24.58
2019-04-03T20:44:07.774Z,24.58
2019-04-03T20:46:39.628Z,24.57
2019-04-03T20:49:11.941Z,24.52
2019-04-03T20:51:43.915Z,24.49
2019-04-03T20:54:16.385Z,24.47
2019-04-03T20:56:57.640Z,24.68
2019-04-03T20:59:22.670Z,24.66
2019-04-03T21:01:54.557Z,24.62
2019-04-03T21:04:26.427Z,24.79
2019-04-03T21:06:58.819Z,24.98
2019-04-03T21:09:31.560Z,24.93
2019-04-03T21:12:05.080Z,24.95
2019-04-03T21:14:41.177Z,25.30
2019-04-03T21:17:11.572Z,24.98
2019-04-03T21:19:44.931Z,25.25
2019-04-03T21:22:16.761Z,25.11
2019-04-03T21:24:49.194Z,25.31
2019-04-03T21:27:21.044Z,25.32
2019-04-03T21:29:52.885Z,25.48
2019-04-03T21:32:24.677Z,25.49
2019-04-03T21:34:56.592Z,25.32
2019-04-03T21:37:28.651Z,25.20
2019-04-03T21:40:04.513Z,25.28
2019-04-03T21:42:34.504Z,25.67
2019-04-03T21:45:08.029Z,25.50
2019-04-03T21:47:40.940Z,25.43
2019-04-03T21:50:14.421Z,25.40
2019-04-03T21:52:46.243Z,25.67
2019-04-03T21:55:18.596Z,25.63
2019-04-03T21:57:50.402Z,25.81
2019-04-03T22:01:18.694Z,25.76
2019-04-03T22:03:51.661Z,25.80
2019-04-03T22:06:26.614Z,25.98
2019-04-03T22:08:59.661Z,25.90
2019-04-03T22:11:31.251Z,25.92
2019-04-03T22:14:03.099Z,25.99
2019-04-03T22:16:35.301Z,26.06
2019-04-03T22:19:07.125Z,26.08
2019-04-03T22:21:39.214Z,26.27
2019-04-03T22:24:11.164Z,26.24
2019-04-03T22:26:43.279Z,26.51
2019-04-03T22:29:15.107Z,26.68
2019-04-03T22:31:47.174Z,26.38
2019-04-03T22:34:19.030Z,26.58
2019-04-03T22:36:51.563Z,26.87
2019-04-03T22:39:23.456Z,27.18
2019-04-03T22:41:55.759Z,26.91
2019-04-03T22:44:27.816Z,26.73
2019-04-03T22:46:59.989Z,26.74
2019-04-03T22:49:33.755Z,26.99
2019-04-03T22:52:06.908Z,26.99
2019-04-03T22:54:39.140Z,27.04
2019-04-03T22:57:11.440Z,27.25
2019-04-03T22:59:43.341Z,27.23
2019-04-03T23:02:15.190Z,27.34
2019-04-03T23:04:46.987Z,27.37
2019-04-03T23:07:20.964Z,27.52
2019-04-03T23:09:52.583Z,27.70
2019-04-03T23:12:24.748Z,27.55
2019-04-03T23:14:56.532Z,27.56
2019-04-03T23:17:28.684Z,27.81
2019-04-03T23:20:00.490Z,27.82
2019-04-03T23:22:32.593Z,28.00
2019-04-03T23:25:04.704Z,27.82
2019-04-03T23:27:37.031Z,27.79
2019-04-03T23:30:10.707Z,27.88
2019-04-03T23:32:45.753Z,27.96
2019-04-03T23:35:16.469Z,28.17
2019-04-03T23:37:48.482Z,28.12
2019-04-03T23:40:20.231Z,28.58
2019-04-03T23:42:52.494Z,28.23
2019-04-03T23:45:26.450Z,28.23
2019-04-03T23:47:58.498Z,28.24
2019-04-03T23:50:30.265Z,28.46
2019-04-03T23:53:02.295Z,28.60
2019-04-03T23:55:34.333Z,28.70
2019-04-03T23:58:10.656Z,28.89
